sensor_id;sensor_type;location;lat;lon;timestamp;P1;durP1;ratioP1;P2;durP2;ratioP2
5295;SDS011;2670;42.720;23.336;2023-08-21T00:01:30;11.63;;;7.60;;
5295;SDS011;2670;42.720;23.336;2023-08-21T00:03:56;10.70;;;7.57;;
5295;SDS011;2670;42.720;23.336;2023-08-21T00:06:23;13.73;;;7.20;;
5295;SDS011;2670;42.720;23.336;2023-08-21T00:08:50;10.77;;;7.77;;
5295;SDS011;2670;42.720;23.336;2023-08-21T00:11:17;16.70;;;7.30;;
5295;SDS011;2670;42.720;23.336;2023-08-21T00:13:46;13.50;;;7.67;;
5295;SDS011;2670;42.720;23.336;2023-08-21T00:16:16;9.47;;;6.70;;
5295;SDS011;2670;42.720;23.336;2023-08-21T00:18:43;16.30;;;7.57;;
5295;SDS011;2670;42.720;23.336;2023-08-21T00:21:10;10.23;;;7.20;;
5295;SDS011;2670;42.720;23.336;2023-08-21T00:23:37;10.33;;;7.27;;
5295;SDS011;2670;42.720;23.336;2023-08-21T00:26:04;18.20;;;7.60;;
5295;SDS011;2670;42.720;23.336;2023-08-21T00:28:33;13.00;;;7.60;;
5295;SDS011;2670;42.720;23.336;2023-08-21T00:31:01;11.03;;;7.43;;
5295;SDS011;2670;42.720;23.336;2023-08-21T00:33:30;10.47;;;7.30;;
5295;SDS011;2670;42.720;23.336;2023-08-21T00:35:57;10.93;;;6.63;;
5295;SDS011;2670;42.720;23.336;2023-08-21T00:38:23;10.00;;;7.10;;
5295;SDS011;2670;42.720;23.336;2023-08-21T00:40:51;13.00;;;7.97;;
5295;SDS011;2670;42.720;23.336;2023-08-21T00:43:19;13.13;;;7.67;;
5295;SDS011;2670;42.720;23.336;2023-08-21T00:45:46;9.33;;;7.23;;
5295;SDS011;2670;42.720;23.336;2023-08-21T00:48:16;11.10;;;7.33;;
5295;SDS011;2670;42.720;23.336;2023-08-21T00:50:45;13.47;;;7.00;;
5295;SDS011;2670;42.720;23.336;2023-08-21T00:53:12;9.30;;;7.50;;
5295;SDS011;2670;42.720;23.336;2023-08-21T00:55:39;10.40;;;7.10;;
5295;SDS011;2670;42.720;23.336;2023-08-21T00:58:08;13.13;;;6.33;;
5295;SDS011;2670;42.720;23.336;2023-08-21T01:00:36;13.80;;;7.30;;
5295;SDS011;2670;42.720;23.336;2023-08-21T01:03:04;16.50;;;6.93;;
5295;SDS011;2670;42.720;23.336;2023-08-21T01:05:31;8.97;;;6.67;;
5295;SDS011;2670;42.720;23.336;2023-08-21T01:08:01;10.83;;;6.83;;
5295;SDS011;2670;42.720;23.336;2023-08-21T01:13:22;9.30;;;6.53;;
5295;SDS011;2670;42.720;23.336;2023-08-21T01:15:58;9.47;;;7.10;;
5295;SDS011;2670;42.720;23.336;2023-08-21T01:18:25;7.23;;;5.77;;
5295;SDS011;2670;42.720;23.336;2023-08-21T01:20:53;9.63;;;7.10;;
5295;SDS011;2670;42.720;23.336;2023-08-21T01:23:29;7.73;;;6.30;;
5295;SDS011;2670;42.720;23.336;2023-08-21T01:26:03;9.47;;;6.13;;
5295;SDS011;2670;42.720;23.336;2023-08-21T01:28:31;7.43;;;6.13;;
5295;SDS011;2670;42.720;23.336;2023-08-21T01:31:01;8.90;;;6.67;;
5295;SDS011;2670;42.720;23.336;2023-08-21T01:33:33;11.67;;;8.17;;
5295;SDS011;2670;42.720;23.336;2023-08-21T01:36:06;11.10;;;7.40;;
5295;SDS011;2670;42.720;23.336;2023-08-21T01:38:34;12.47;;;7.70;;
5295;SDS011;2670;42.720;23.336;2023-08-21T01:41:01;9.97;;;7.53;;
5295;SDS011;2670;42.720;23.336;2023-08-21T01:43:28;11.60;;;7.63;;
5295;SDS011;2670;42.720;23.336;2023-08-21T01:45:55;13.03;;;7.20;;
5295;SDS011;2670;42.720;23.336;2023-08-21T01:48:21;10.20;;;6.67;;
5295;SDS011;2670;42.720;23.336;2023-08-21T01:50:48;11.43;;;7.17;;
5295;SDS011;2670;42.720;23.336;2023-08-21T01:53:15;9.60;;;7.10;;
5295;SDS011;2670;42.720;23.336;2023-08-21T01:55:43;8.53;;;6.73;;
5295;SDS011;2670;42.720;23.336;2023-08-21T01:58:10;8.20;;;6.63;;
5295;SDS011;2670;42.720;23.336;2023-08-21T02:00:37;12.73;;;7.43;;
5295;SDS011;2670;42.720;23.336;2023-08-21T02:03:04;8.30;;;6.90;;
5295;SDS011;2670;42.720;23.336;2023-08-21T02:05:30;14.40;;;7.20;;
5295;SDS011;2670;42.720;23.336;2023-08-21T02:08:03;11.17;;;7.10;;
5295;SDS011;2670;42.720;23.336;2023-08-21T02:10:30;9.43;;;7.37;;
5295;SDS011;2670;42.720;23.336;2023-08-21T02:12:59;8.53;;;7.07;;
5295;SDS011;2670;42.720;23.336;2023-08-21T02:15:25;11.40;;;7.57;;
5295;SDS011;2670;42.720;23.336;2023-08-21T02:17:52;8.50;;;6.90;;
5295;SDS011;2670;42.720;23.336;2023-08-21T02:20:19;9.13;;;7.30;;
5295;SDS011;2670;42.720;23.336;2023-08-21T02:22:46;13.10;;;7.53;;
5295;SDS011;2670;42.720;23.336;2023-08-21T02:25:13;11.77;;;6.60;;
5295;SDS011;2670;42.720;23.336;2023-08-21T02:27:39;9.07;;;7.80;;
5295;SDS011;2670;42.720;23.336;2023-08-21T02:30:08;8.60;;;6.47;;
5295;SDS011;2670;42.720;23.336;2023-08-21T02:32:35;9.97;;;7.53;;
5295;SDS011;2670;42.720;23.336;2023-08-21T02:35:03;9.33;;;6.97;;
5295;SDS011;2670;42.720;23.336;2023-08-21T02:37:31;8.90;;;7.00;;
5295;SDS011;2670;42.720;23.336;2023-08-21T02:39:57;12.70;;;7.57;;
5295;SDS011;2670;42.720;23.336;2023-08-21T02:42:24;11.53;;;7.33;;
5295;SDS011;2670;42.720;23.336;2023-08-21T02:44:51;10.27;;;6.80;;
5295;SDS011;2670;42.720;23.336;2023-08-21T02:47:19;19.60;;;7.73;;
5295;SDS011;2670;42.720;23.336;2023-08-21T02:49:46;14.83;;;7.40;;
5295;SDS011;2670;42.720;23.336;2023-08-21T02:52:13;9.93;;;6.60;;
5295;SDS011;2670;42.720;23.336;2023-08-21T02:54:39;17.03;;;7.60;;
5295;SDS011;2670;42.720;23.336;2023-08-21T02:57:06;11.83;;;7.57;;
5295;SDS011;2670;42.720;23.336;2023-08-21T02:59:33;18.00;;;7.70;;
5295;SDS011;2670;42.720;23.336;2023-08-21T03:01:59;8.70;;;6.70;;
5295;SDS011;2670;42.720;23.336;2023-08-21T03:04:27;9.17;;;6.80;;
5295;SDS011;2670;42.720;23.336;2023-08-21T03:06:54;9.77;;;7.20;;
5295;SDS011;2670;42.720;23.336;2023-08-21T03:09:21;9.73;;;7.70;;
5295;SDS011;2670;42.720;23.336;2023-08-21T03:11:48;12.37;;;8.17;;
5295;SDS011;2670;42.720;23.336;2023-08-21T03:14:14;13.70;;;7.60;;
5295;SDS011;2670;42.720;23.336;2023-08-21T03:16:41;12.73;;;7.53;;
5295;SDS011;2670;42.720;23.336;2023-08-21T03:19:08;14.97;;;7.50;;
5295;SDS011;2670;42.720;23.336;2023-08-21T03:21:36;11.57;;;7.10;;
5295;SDS011;2670;42.720;23.336;2023-08-21T03:24:02;13.27;;;8.20;;
5295;SDS011;2670;42.720;23.336;2023-08-21T03:26:29;14.90;;;7.37;;
5295;SDS011;2670;42.720;23.336;2023-08-21T03:28:56;10.50;;;7.97;;
5295;SDS011;2670;42.720;23.336;2023-08-21T03:31:23;10.30;;;7.73;;
5295;SDS011;2670;42.720;23.336;2023-08-21T03:33:49;10.20;;;6.80;;
5295;SDS011;2670;42.720;23.336;2023-08-21T03:36:16;10.70;;;8.23;;
5295;SDS011;2670;42.720;23.336;2023-08-21T03:38:45;10.53;;;7.50;;
5295;SDS011;2670;42.720;23.336;2023-08-21T03:41:12;13.00;;;8.40;;
5295;SDS011;2670;42.720;23.336;2023-08-21T03:43:38;13.07;;;6.93;;
5295;SDS011;2670;42.720;23.336;2023-08-21T03:46:05;13.40;;;7.43;;
5295;SDS011;2670;42.720;23.336;2023-08-21T03:48:32;10.50;;;7.67;;
5295;SDS011;2670;42.720;23.336;2023-08-21T03:50:58;14.37;;;7.90;;
5295;SDS011;2670;42.720;23.336;2023-08-21T03:53:25;14.73;;;8.20;;
5295;SDS011;2670;42.720;23.336;2023-08-21T03:55:53;16.13;;;8.67;;
5295;SDS011;2670;42.720;23.336;2023-08-21T03:58:20;14.23;;;7.73;;
5295;SDS011;2670;42.720;23.336;2023-08-21T04:00:47;11.47;;;7.67;;
5295;SDS011;2670;42.720;23.336;2023-08-21T04:03:13;11.93;;;7.80;;
5295;SDS011;2670;42.720;23.336;2023-08-21T04:05:40;16.83;;;7.20;;
5295;SDS011;2670;42.720;23.336;2023-08-21T04:08:07;18.20;;;8.47;;
5295;SDS011;2670;42.720;23.336;2023-08-21T04:10:34;17.43;;;8.77;;
5295;SDS011;2670;42.720;23.336;2023-08-21T04:13:02;12.80;;;8.50;;
5295;SDS011;2670;42.720;23.336;2023-08-21T04:15:29;18.97;;;8.70;;
5295;SDS011;2670;42.720;23.336;2023-08-21T04:17:56;11.83;;;7.90;;
5295;SDS011;2670;42.720;23.336;2023-08-21T04:20:22;11.27;;;7.90;;
5295;SDS011;2670;42.720;23.336;2023-08-21T04:22:49;17.33;;;8.67;;
5295;SDS011;2670;42.720;23.336;2023-08-21T04:25:16;12.20;;;8.60;;
5295;SDS011;2670;42.720;23.336;2023-08-21T04:27:43;15.10;;;10.13;;
5295;SDS011;2670;42.720;23.336;2023-08-21T04:30:12;19.93;;;9.60;;
5295;SDS011;2670;42.720;23.336;2023-08-21T04:32:39;12.53;;;8.50;;
5295;SDS011;2670;42.720;23.336;2023-08-21T04:35:06;15.50;;;8.80;;
5295;SDS011;2670;42.720;23.336;2023-08-21T04:37:34;13.90;;;7.80;;
5295;SDS011;2670;42.720;23.336;2023-08-21T04:40:01;16.17;;;8.53;;
5295;SDS011;2670;42.720;23.336;2023-08-21T04:42:27;24.43;;;8.70;;
5295;SDS011;2670;42.720;23.336;2023-08-21T04:44:54;15.27;;;8.77;;
5295;SDS011;2670;42.720;23.336;2023-08-21T04:47:23;18.23;;;7.67;;
5295;SDS011;2670;42.720;23.336;2023-08-21T04:49:51;14.63;;;8.50;;
5295;SDS011;2670;42.720;23.336;2023-08-21T04:52:18;13.90;;;7.50;;
5295;SDS011;2670;42.720;23.336;2023-08-21T04:54:45;13.60;;;8.07;;
5295;SDS011;2670;42.720;23.336;2023-08-21T04:57:12;11.60;;;8.20;;
5295;SDS011;2670;42.720;23.336;2023-08-21T04:59:39;12.10;;;8.13;;
5295;SDS011;2670;42.720;23.336;2023-08-21T05:02:06;12.50;;;8.57;;
5295;SDS011;2670;42.720;23.336;2023-08-21T05:04:35;11.80;;;8.40;;
5295;SDS011;2670;42.720;23.336;2023-08-21T05:07:02;13.33;;;8.27;;
5295;SDS011;2670;42.720;23.336;2023-08-21T05:09:29;12.87;;;8.13;;
5295;SDS011;2670;42.720;23.336;2023-08-21T05:11:56;17.20;;;8.20;;
5295;SDS011;2670;42.720;23.336;2023-08-21T05:14:23;17.97;;;8.70;;
5295;SDS011;2670;42.720;23.336;2023-08-21T05:16:50;14.07;;;8.67;;
5295;SDS011;2670;42.720;23.336;2023-08-21T05:19:17;12.47;;;8.30;;
5295;SDS011;2670;42.720;23.336;2023-08-21T05:21:45;12.53;;;8.67;;
5295;SDS011;2670;42.720;23.336;2023-08-21T05:24:12;11.83;;;8.57;;
5295;SDS011;2670;42.720;23.336;2023-08-21T05:26:38;11.93;;;9.40;;
5295;SDS011;2670;42.720;23.336;2023-08-21T05:29:05;15.03;;;9.90;;
5295;SDS011;2670;42.720;23.336;2023-08-21T05:31:32;18.40;;;11.00;;
5295;SDS011;2670;42.720;23.336;2023-08-21T05:33:59;24.13;;;9.83;;
5295;SDS011;2670;42.720;23.336;2023-08-21T05:36:25;14.17;;;10.00;;
5295;SDS011;2670;42.720;23.336;2023-08-21T05:38:53;11.07;;;8.57;;
5295;SDS011;2670;42.720;23.336;2023-08-21T05:41:20;13.90;;;9.33;;
5295;SDS011;2670;42.720;23.336;2023-08-21T05:43:47;16.23;;;12.17;;
5295;SDS011;2670;42.720;23.336;2023-08-21T05:46:14;16.33;;;10.90;;
5295;SDS011;2670;42.720;23.336;2023-08-21T05:48:41;18.20;;;9.93;;
5295;SDS011;2670;42.720;23.336;2023-08-21T05:51:07;21.00;;;10.20;;
5295;SDS011;2670;42.720;23.336;2023-08-21T05:53:34;15.80;;;9.00;;
5295;SDS011;2670;42.720;23.336;2023-08-21T05:56:01;13.40;;;9.00;;
5295;SDS011;2670;42.720;23.336;2023-08-21T05:58:28;12.60;;;7.93;;
5295;SDS011;2670;42.720;23.336;2023-08-21T06:00:56;11.87;;;8.93;;
5295;SDS011;2670;42.720;23.336;2023-08-21T06:03:23;14.73;;;8.80;;
5295;SDS011;2670;42.720;23.336;2023-08-21T06:05:50;15.70;;;8.33;;
5295;SDS011;2670;42.720;23.336;2023-08-21T06:08:16;14.57;;;7.60;;
5295;SDS011;2670;42.720;23.336;2023-08-21T06:10:44;15.90;;;8.87;;
5295;SDS011;2670;42.720;23.336;2023-08-21T06:13:12;14.90;;;8.17;;
5295;SDS011;2670;42.720;23.336;2023-08-21T06:15:39;11.03;;;8.13;;
5295;SDS011;2670;42.720;23.336;2023-08-21T06:18:05;20.20;;;9.20;;
5295;SDS011;2670;42.720;23.336;2023-08-21T06:20:32;14.87;;;7.47;;
5295;SDS011;2670;42.720;23.336;2023-08-21T06:22:59;10.20;;;7.70;;
5295;SDS011;2670;42.720;23.336;2023-08-21T06:25:25;15.40;;;8.33;;
5295;SDS011;2670;42.720;23.336;2023-08-21T06:27:52;11.90;;;7.40;;
5295;SDS011;2670;42.720;23.336;2023-08-21T06:30:20;13.90;;;8.73;;
5295;SDS011;2670;42.720;23.336;2023-08-21T06:32:47;12.43;;;8.00;;
5295;SDS011;2670;42.720;23.336;2023-08-21T06:35:14;14.40;;;8.50;;
5295;SDS011;2670;42.720;23.336;2023-08-21T06:37:42;14.23;;;8.17;;
5295;SDS011;2670;42.720;23.336;2023-08-21T06:40:09;17.90;;;8.90;;
5295;SDS011;2670;42.720;23.336;2023-08-21T06:42:36;10.80;;;7.73;;
5295;SDS011;2670;42.720;23.336;2023-08-21T06:45:03;13.70;;;7.97;;
5295;SDS011;2670;42.720;23.336;2023-08-21T06:47:32;15.07;;;8.20;;
5295;SDS011;2670;42.720;23.336;2023-08-21T06:49:59;10.90;;;7.87;;
5295;SDS011;2670;42.720;23.336;2023-08-21T06:52:26;13.07;;;8.20;;
5295;SDS011;2670;42.720;23.336;2023-08-21T06:54:53;13.53;;;7.60;;
5295;SDS011;2670;42.720;23.336;2023-08-21T06:57:19;14.10;;;8.13;;
5295;SDS011;2670;42.720;23.336;2023-08-21T06:59:47;13.93;;;7.70;;
5295;SDS011;2670;42.720;23.336;2023-08-21T07:02:13;13.40;;;6.63;;
5295;SDS011;2670;42.720;23.336;2023-08-21T07:04:41;8.00;;;6.30;;
5295;SDS011;2670;42.720;23.336;2023-08-21T07:07:08;10.80;;;6.87;;
5295;SDS011;2670;42.720;23.336;2023-08-21T07:09:35;22.27;;;7.20;;
5295;SDS011;2670;42.720;23.336;2023-08-21T07:12:02;11.00;;;6.17;;
5295;SDS011;2670;42.720;23.336;2023-08-21T07:14:29;11.00;;;6.37;;
5295;SDS011;2670;42.720;23.336;2023-08-21T07:16:55;11.47;;;7.20;;
5295;SDS011;2670;42.720;23.336;2023-08-21T07:19:22;13.87;;;7.40;;
5295;SDS011;2670;42.720;23.336;2023-08-21T07:21:50;20.20;;;7.60;;
5295;SDS011;2670;42.720;23.336;2023-08-21T07:24:17;18.33;;;6.20;;
5295;SDS011;2670;42.720;23.336;2023-08-21T07:26:43;11.63;;;6.20;;
5295;SDS011;2670;42.720;23.336;2023-08-21T07:29:11;12.73;;;6.00;;
5295;SDS011;2670;42.720;23.336;2023-08-21T07:31:38;13.40;;;6.90;;
5295;SDS011;2670;42.720;23.336;2023-08-21T07:34:04;7.33;;;5.43;;
5295;SDS011;2670;42.720;23.336;2023-08-21T07:36:31;19.63;;;10.40;;
5295;SDS011;2670;42.720;23.336;2023-08-21T07:38:59;24.53;;;9.53;;
5295;SDS011;2670;42.720;23.336;2023-08-21T07:41:26;19.17;;;7.63;;
5295;SDS011;2670;42.720;23.336;2023-08-21T07:43:54;15.60;;;9.10;;
5295;SDS011;2670;42.720;23.336;2023-08-21T07:46:21;14.00;;;8.80;;
5295;SDS011;2670;42.720;23.336;2023-08-21T07:48:49;14.50;;;10.03;;
5295;SDS011;2670;42.720;23.336;2023-08-21T07:51:16;15.27;;;8.83;;
5295;SDS011;2670;42.720;23.336;2023-08-21T07:53:42;15.03;;;9.50;;
5295;SDS011;2670;42.720;23.336;2023-08-21T07:56:11;9.40;;;6.90;;
5295;SDS011;2670;42.720;23.336;2023-08-21T07:58:37;11.27;;;8.07;;
5295;SDS011;2670;42.720;23.336;2023-08-21T08:01:04;12.93;;;8.00;;
5295;SDS011;2670;42.720;23.336;2023-08-21T08:03:31;21.37;;;10.53;;
5295;SDS011;2670;42.720;23.336;2023-08-21T08:05:57;13.93;;;6.47;;
5295;SDS011;2670;42.720;23.336;2023-08-21T08:08:24;8.80;;;5.77;;
5295;SDS011;2670;42.720;23.336;2023-08-21T08:10:51;14.20;;;6.50;;
5295;SDS011;2670;42.720;23.336;2023-08-21T08:13:19;9.93;;;6.73;;
5295;SDS011;2670;42.720;23.336;2023-08-21T08:15:46;13.20;;;6.60;;
5295;SDS011;2670;42.720;23.336;2023-08-21T08:18:14;13.10;;;6.50;;
5295;SDS011;2670;42.720;23.336;2023-08-21T08:20:40;10.27;;;6.77;;
5295;SDS011;2670;42.720;23.336;2023-08-21T08:23:07;9.93;;;6.13;;
5295;SDS011;2670;42.720;23.336;2023-08-21T08:25:34;9.07;;;6.13;;
5295;SDS011;2670;42.720;23.336;2023-08-21T08:28:01;9.30;;;5.70;;
5295;SDS011;2670;42.720;23.336;2023-08-21T08:30:29;8.63;;;5.87;;
5295;SDS011;2670;42.720;23.336;2023-08-21T08:32:55;9.97;;;6.60;;
5295;SDS011;2670;42.720;23.336;2023-08-21T08:35:22;5.97;;;5.30;;
5295;SDS011;2670;42.720;23.336;2023-08-21T08:37:49;7.47;;;6.40;;
5295;SDS011;2670;42.720;23.336;2023-08-21T08:40:15;9.50;;;6.20;;
5295;SDS011;2670;42.720;23.336;2023-08-21T08:42:42;9.50;;;6.23;;
5295;SDS011;2670;42.720;23.336;2023-08-21T08:45:09;10.80;;;6.60;;
5295;SDS011;2670;42.720;23.336;2023-08-21T08:47:41;8.40;;;6.30;;
5295;SDS011;2670;42.720;23.336;2023-08-21T08:50:08;8.37;;;5.93;;
5295;SDS011;2670;42.720;23.336;2023-08-21T08:52:36;6.87;;;5.00;;
5295;SDS011;2670;42.720;23.336;2023-08-21T08:55:04;12.97;;;6.20;;
5295;SDS011;2670;42.720;23.336;2023-08-21T08:57:32;8.57;;;5.90;;
5295;SDS011;2670;42.720;23.336;2023-08-21T09:00:00;6.50;;;5.57;;
5295;SDS011;2670;42.720;23.336;2023-08-21T09:02:27;13.13;;;5.60;;
5295;SDS011;2670;42.720;23.336;2023-08-21T09:04:55;6.70;;;5.70;;
5295;SDS011;2670;42.720;23.336;2023-08-21T09:07:22;7.10;;;5.60;;
5295;SDS011;2670;42.720;23.336;2023-08-21T09:09:49;7.57;;;5.43;;
5295;SDS011;2670;42.720;23.336;2023-08-21T09:12:17;11.77;;;5.80;;
5295;SDS011;2670;42.720;23.336;2023-08-21T09:14:45;9.50;;;6.17;;
5295;SDS011;2670;42.720;23.336;2023-08-21T09:17:13;8.07;;;5.13;;
5295;SDS011;2670;42.720;23.336;2023-08-21T09:19:40;11.87;;;6.30;;
5295;SDS011;2670;42.720;23.336;2023-08-21T09:22:09;8.53;;;5.67;;
5295;SDS011;2670;42.720;23.336;2023-08-21T09:24:38;9.43;;;5.20;;
5295;SDS011;2670;42.720;23.336;2023-08-21T09:27:12;5.60;;;4.50;;
5295;SDS011;2670;42.720;23.336;2023-08-21T09:29:39;7.37;;;4.63;;
5295;SDS011;2670;42.720;23.336;2023-08-21T09:32:06;11.33;;;5.80;;
5295;SDS011;2670;42.720;23.336;2023-08-21T09:34:34;6.40;;;5.37;;
5295;SDS011;2670;42.720;23.336;2023-08-21T09:37:06;13.63;;;5.30;;
5295;SDS011;2670;42.720;23.336;2023-08-21T09:39:35;7.37;;;4.73;;
5295;SDS011;2670;42.720;23.336;2023-08-21T09:42:04;8.73;;;5.30;;
5295;SDS011;2670;42.720;23.336;2023-08-21T09:44:35;6.10;;;4.80;;
5295;SDS011;2670;42.720;23.336;2023-08-21T09:47:04;6.33;;;4.63;;
5295;SDS011;2670;42.720;23.336;2023-08-21T09:49:34;9.13;;;4.63;;
5295;SDS011;2670;42.720;23.336;2023-08-21T09:52:02;11.20;;;5.37;;
5295;SDS011;2670;42.720;23.336;2023-08-21T09:54:31;8.93;;;5.00;;
5295;SDS011;2670;42.720;23.336;2023-08-21T09:57:01;13.43;;;5.73;;
5295;SDS011;2670;42.720;23.336;2023-08-21T09:59:29;6.20;;;5.17;;
5295;SDS011;2670;42.720;23.336;2023-08-21T10:01:57;10.20;;;5.43;;
5295;SDS011;2670;42.720;23.336;2023-08-21T10:04:25;8.10;;;5.60;;
5295;SDS011;2670;42.720;23.336;2023-08-21T10:06:54;11.40;;;5.30;;
5295;SDS011;2670;42.720;23.336;2023-08-21T10:09:23;5.70;;;4.50;;
5295;SDS011;2670;42.720;23.336;2023-08-21T10:11:51;5.20;;;4.70;;
5295;SDS011;2670;42.720;23.336;2023-08-21T10:14:20;9.33;;;5.27;;
5295;SDS011;2670;42.720;23.336;2023-08-21T10:16:49;14.03;;;5.80;;
5295;SDS011;2670;42.720;23.336;2023-08-21T10:19:17;7.87;;;5.77;;
5295;SDS011;2670;42.720;23.336;2023-08-21T10:21:46;15.90;;;5.93;;
5295;SDS011;2670;42.720;23.336;2023-08-21T10:24:25;11.10;;;5.97;;
5295;SDS011;2670;42.720;23.336;2023-08-21T10:26:53;8.67;;;4.90;;
5295;SDS011;2670;42.720;23.336;2023-08-21T10:29:22;6.10;;;5.27;;
5295;SDS011;2670;42.720;23.336;2023-08-21T10:31:57;6.73;;;5.43;;
5295;SDS011;2670;42.720;23.336;2023-08-21T10:34:30;8.03;;;4.40;;
5295;SDS011;2670;42.720;23.336;2023-08-21T10:39:38;6.43;;;4.97;;
5295;SDS011;2670;42.720;23.336;2023-08-21T10:42:21;10.50;;;4.03;;
5295;SDS011;2670;42.720;23.336;2023-08-21T10:45:11;14.83;;;6.60;;
5295;SDS011;2670;42.720;23.336;2023-08-21T10:47:38;8.50;;;4.63;;
5295;SDS011;2670;42.720;23.336;2023-08-21T10:50:05;6.00;;;4.57;;
5295;SDS011;2670;42.720;23.336;2023-08-21T10:52:35;8.17;;;3.90;;
5295;SDS011;2670;42.720;23.336;2023-08-21T10:55:05;7.50;;;4.70;;
5295;SDS011;2670;42.720;23.336;2023-08-21T10:57:33;4.97;;;4.57;;
5295;SDS011;2670;42.720;23.336;2023-08-21T11:00:01;5.43;;;4.47;;
5295;SDS011;2670;42.720;23.336;2023-08-21T11:02:31;5.10;;;4.40;;
5295;SDS011;2670;42.720;23.336;2023-08-21T11:04:59;8.43;;;4.20;;
5295;SDS011;2670;42.720;23.336;2023-08-21T11:07:28;5.90;;;4.07;;
5295;SDS011;2670;42.720;23.336;2023-08-21T11:09:56;6.73;;;4.50;;
5295;SDS011;2670;42.720;23.336;2023-08-21T11:12:23;7.83;;;4.43;;
5295;SDS011;2670;42.720;23.336;2023-08-21T11:14:52;8.93;;;4.60;;
5295;SDS011;2670;42.720;23.336;2023-08-21T11:17:19;4.90;;;4.33;;
5295;SDS011;2670;42.720;23.336;2023-08-21T11:19:49;6.00;;;3.97;;
5295;SDS011;2670;42.720;23.336;2023-08-21T11:22:17;8.60;;;4.30;;
5295;SDS011;2670;42.720;23.336;2023-08-21T11:24:44;11.00;;;3.80;;
5295;SDS011;2670;42.720;23.336;2023-08-21T11:27:13;9.70;;;4.43;;
5295;SDS011;2670;42.720;23.336;2023-08-21T11:29:41;11.13;;;4.77;;
5295;SDS011;2670;42.720;23.336;2023-08-21T11:32:18;5.77;;;5.17;;
5295;SDS011;2670;42.720;23.336;2023-08-21T11:34:47;8.27;;;4.47;;
5295;SDS011;2670;42.720;23.336;2023-08-21T11:37:17;6.27;;;5.03;;
5295;SDS011;2670;42.720;23.336;2023-08-21T11:39:48;7.63;;;4.27;;
5295;SDS011;2670;42.720;23.336;2023-08-21T11:42:16;8.60;;;3.90;;
5295;SDS011;2670;42.720;23.336;2023-08-21T11:44:45;6.60;;;4.00;;
5295;SDS011;2670;42.720;23.336;2023-08-21T11:47:14;6.00;;;4.90;;
5295;SDS011;2670;42.720;23.336;2023-08-21T11:49:42;6.83;;;4.40;;
5295;SDS011;2670;42.720;23.336;2023-08-21T11:52:13;6.80;;;4.40;;
5295;SDS011;2670;42.720;23.336;2023-08-21T11:54:43;5.30;;;4.40;;
5295;SDS011;2670;42.720;23.336;2023-08-21T11:57:15;4.57;;;4.00;;
5295;SDS011;2670;42.720;23.336;2023-08-21T11:59:42;7.70;;;4.50;;
5295;SDS011;2670;42.720;23.336;2023-08-21T12:02:12;10.30;;;4.40;;
5295;SDS011;2670;42.720;23.336;2023-08-21T12:04:40;5.80;;;4.30;;
5295;SDS011;2670;42.720;23.336;2023-08-21T12:07:07;5.47;;;4.17;;
5295;SDS011;2670;42.720;23.336;2023-08-21T12:09:36;8.70;;;4.67;;
5295;SDS011;2670;42.720;23.336;2023-08-21T12:12:03;5.83;;;4.30;;
5295;SDS011;2670;42.720;23.336;2023-08-21T12:14:31;5.10;;;4.40;;
5295;SDS011;2670;42.720;23.336;2023-08-21T12:16:57;13.23;;;4.53;;
5295;SDS011;2670;42.720;23.336;2023-08-21T12:19:25;5.67;;;3.83;;
5295;SDS011;2670;42.720;23.336;2023-08-21T12:21:52;6.23;;;4.40;;
5295;SDS011;2670;42.720;23.336;2023-08-21T12:24:19;16.07;;;4.70;;
5295;SDS011;2670;42.720;23.336;2023-08-21T12:26:49;5.63;;;4.60;;
5295;SDS011;2670;42.720;23.336;2023-08-21T12:29:16;7.63;;;4.43;;
5295;SDS011;2670;42.720;23.336;2023-08-21T12:31:43;8.33;;;4.70;;
5295;SDS011;2670;42.720;23.336;2023-08-21T12:34:10;7.00;;;4.20;;
5295;SDS011;2670;42.720;23.336;2023-08-21T12:36:36;8.50;;;3.80;;
5295;SDS011;2670;42.720;23.336;2023-08-21T12:39:04;5.93;;;4.30;;
5295;SDS011;2670;42.720;23.336;2023-08-21T12:41:31;4.80;;;3.93;;
5295;SDS011;2670;42.720;23.336;2023-08-21T12:44:00;8.23;;;4.07;;
5295;SDS011;2670;42.720;23.336;2023-08-21T12:46:28;5.97;;;4.17;;
5295;SDS011;2670;42.720;23.336;2023-08-21T12:48:55;5.80;;;3.73;;
5295;SDS011;2670;42.720;23.336;2023-08-21T12:51:22;14.50;;;4.70;;
5295;SDS011;2670;42.720;23.336;2023-08-21T12:53:49;7.30;;;4.30;;
5295;SDS011;2670;42.720;23.336;2023-08-21T12:56:16;6.30;;;4.30;;
5295;SDS011;2670;42.720;23.336;2023-08-21T12:58:44;4.47;;;4.00;;
5295;SDS011;2670;42.720;23.336;2023-08-21T13:01:12;8.13;;;3.77;;
5295;SDS011;2670;42.720;23.336;2023-08-21T13:03:43;11.00;;;4.40;;
5295;SDS011;2670;42.720;23.336;2023-08-21T13:06:14;8.77;;;4.00;;
5295;SDS011;2670;42.720;23.336;2023-08-21T13:08:41;8.80;;;4.73;;
5295;SDS011;2670;42.720;23.336;2023-08-21T13:11:08;10.90;;;4.60;;
5295;SDS011;2670;42.720;23.336;2023-08-21T13:13:35;6.20;;;4.13;;
5295;SDS011;2670;42.720;23.336;2023-08-21T13:16:02;6.20;;;4.90;;
5295;SDS011;2670;42.720;23.336;2023-08-21T13:18:31;7.33;;;4.50;;
5295;SDS011;2670;42.720;23.336;2023-08-21T13:20:59;6.17;;;4.53;;
5295;SDS011;2670;42.720;23.336;2023-08-21T13:23:28;6.80;;;4.47;;
5295;SDS011;2670;42.720;23.336;2023-08-21T13:25:55;6.57;;;4.40;;
5295;SDS011;2670;42.720;23.336;2023-08-21T13:28:22;7.73;;;4.93;;
5295;SDS011;2670;42.720;23.336;2023-08-21T13:30:49;5.40;;;4.23;;
5295;SDS011;2670;42.720;23.336;2023-08-21T13:33:15;5.93;;;3.93;;
5295;SDS011;2670;42.720;23.336;2023-08-21T13:35:44;6.13;;;4.33;;
5295;SDS011;2670;42.720;23.336;2023-08-21T13:38:11;5.53;;;4.00;;
5295;SDS011;2670;42.720;23.336;2023-08-21T13:40:38;7.27;;;4.03;;
5295;SDS011;2670;42.720;23.336;2023-08-21T13:43:05;4.47;;;3.93;;
5295;SDS011;2670;42.720;23.336;2023-08-21T13:45:32;5.97;;;4.60;;
5295;SDS011;2670;42.720;23.336;2023-08-21T13:48:00;6.57;;;4.20;;
5295;SDS011;2670;42.720;23.336;2023-08-21T13:50:30;8.83;;;4.57;;
5295;SDS011;2670;42.720;23.336;2023-08-21T13:52:58;5.57;;;4.07;;
5295;SDS011;2670;42.720;23.336;2023-08-21T13:55:24;14.00;;;4.57;;
5295;SDS011;2670;42.720;23.336;2023-08-21T13:57:51;9.63;;;4.40;;
5295;SDS011;2670;42.720;23.336;2023-08-21T14:00:19;6.10;;;4.90;;
5295;SDS011;2670;42.720;23.336;2023-08-21T14:02:46;7.43;;;4.60;;
5295;SDS011;2670;42.720;23.336;2023-08-21T14:05:13;5.83;;;4.03;;
5295;SDS011;2670;42.720;23.336;2023-08-21T14:07:40;5.90;;;4.43;;
5295;SDS011;2670;42.720;23.336;2023-08-21T14:10:09;6.30;;;4.70;;
5295;SDS011;2670;42.720;23.336;2023-08-21T14:12:35;9.93;;;4.40;;
5295;SDS011;2670;42.720;23.336;2023-08-21T14:15:02;9.93;;;4.23;;
5295;SDS011;2670;42.720;23.336;2023-08-21T14:17:30;6.43;;;4.67;;
5295;SDS011;2670;42.720;23.336;2023-08-21T14:19:57;14.33;;;5.03;;
5295;SDS011;2670;42.720;23.336;2023-08-21T14:22:24;11.77;;;4.67;;
5295;SDS011;2670;42.720;23.336;2023-08-21T14:24:51;8.20;;;4.30;;
5295;SDS011;2670;42.720;23.336;2023-08-21T14:27:21;4.97;;;4.50;;
5295;SDS011;2670;42.720;23.336;2023-08-21T14:29:49;4.47;;;4.07;;
5295;SDS011;2670;42.720;23.336;2023-08-21T14:32:16;7.90;;;4.53;;
5295;SDS011;2670;42.720;23.336;2023-08-21T14:34:43;10.33;;;4.37;;
5295;SDS011;2670;42.720;23.336;2023-08-21T14:37:10;6.83;;;4.00;;
5295;SDS011;2670;42.720;23.336;2023-08-21T14:39:41;5.37;;;4.30;;
5295;SDS011;2670;42.720;23.336;2023-08-21T14:42:11;4.90;;;4.40;;
5295;SDS011;2670;42.720;23.336;2023-08-21T14:44:39;4.57;;;4.13;;
5295;SDS011;2670;42.720;23.336;2023-08-21T14:47:06;6.20;;;4.57;;
5295;SDS011;2670;42.720;23.336;2023-08-21T14:49:33;4.87;;;4.30;;
5295;SDS011;2670;42.720;23.336;2023-08-21T14:52:00;9.40;;;5.43;;
5295;SDS011;2670;42.720;23.336;2023-08-21T14:54:28;5.50;;;4.53;;
5295;SDS011;2670;42.720;23.336;2023-08-21T14:56:55;9.70;;;5.23;;
5295;SDS011;2670;42.720;23.336;2023-08-21T14:59:21;5.67;;;4.77;;
5295;SDS011;2670;42.720;23.336;2023-08-21T15:01:49;4.90;;;4.50;;